sensor_id;sensor_type;location;lat;lon;timestamp;P1;durP1;ratioP1;P2;durP2;ratioP2
79464;SDS011;68932;47.410;8.232;2024-01-06T00:02:11;10.30;;;8.00;;
79464;SDS011;68932;47.410;8.232;2024-01-06T00:04:39;9.70;;;7.70;;
79464;SDS011;68932;47.410;8.232;2024-01-06T00:07:07;9.20;;;7.80;;
79464;SDS011;68932;47.410;8.232;2024-01-06T00:09:36;11.00;;;8.80;;
79464;SDS011;68932;47.410;8.232;2024-01-06T00:12:05;8.50;;;6.70;;
79464;SDS011;68932;47.410;8.232;2024-01-06T00:14:34;8.90;;;7.50;;
79464;SDS011;68932;47.410;8.232;2024-01-06T00:17:02;8.10;;;7.20;;
79464;SDS011;68932;47.410;8.232;2024-01-06T00:19:31;9.40;;;7.40;;
79464;SDS011;68932;47.410;8.232;2024-01-06T00:21:59;8.20;;;6.60;;
79464;SDS011;68932;47.410;8.232;2024-01-06T00:24:27;7.70;;;6.70;;
79464;SDS011;68932;47.410;8.232;2024-01-06T00:26:55;8.50;;;7.20;;
79464;SDS011;68932;47.410;8.232;2024-01-06T00:29:24;9.10;;;7.20;;
79464;SDS011;68932;47.410;8.232;2024-01-06T00:31:52;9.90;;;8.20;;
79464;SDS011;68932;47.410;8.232;2024-01-06T00:34:20;8.90;;;7.50;;
79464;SDS011;68932;47.410;8.232;2024-01-06T00:36:49;8.50;;;6.80;;
79464;SDS011;68932;47.410;8.232;2024-01-06T00:39:17;9.00;;;7.10;;
79464;SDS011;68932;47.410;8.232;2024-01-06T00:41:46;9.60;;;7.50;;
79464;SDS011;68932;47.410;8.232;2024-01-06T00:44:14;8.90;;;7.20;;
79464;SDS011;68932;47.410;8.232;2024-01-06T00:46:42;10.80;;;7.90;;
79464;SDS011;68932;47.410;8.232;2024-01-06T00:49:11;11.10;;;8.90;;
79464;SDS011;68932;47.410;8.232;2024-01-06T00:51:39;9.20;;;7.60;;
79464;SDS011;68932;47.410;8.232;2024-01-06T00:54:07;9.10;;;7.10;;
79464;SDS011;68932;47.410;8.232;2024-01-06T00:56:36;9.50;;;8.00;;
79464;SDS011;68932;47.410;8.232;2024-01-06T00:59:04;10.10;;;7.80;;
79464;SDS011;68932;47.410;8.232;2024-01-06T01:01:33;10.00;;;7.40;;
79464;SDS011;68932;47.410;8.232;2024-01-06T01:04:01;9.00;;;8.00;;
79464;SDS011;68932;47.410;8.232;2024-01-06T01:06:29;9.40;;;7.90;;
79464;SDS011;68932;47.410;8.232;2024-01-06T01:08:58;9.70;;;7.40;;
79464;SDS011;68932;47.410;8.232;2024-01-06T01:11:26;8.60;;;7.40;;
79464;SDS011;68932;47.410;8.232;2024-01-06T01:13:54;8.00;;;6.40;;
79464;SDS011;68932;47.410;8.232;2024-01-06T01:16:22;8.40;;;6.90;;
79464;SDS011;68932;47.410;8.232;2024-01-06T01:18:51;8.60;;;7.00;;
79464;SDS011;68932;47.410;8.232;2024-01-06T01:21:19;8.40;;;7.40;;
79464;SDS011;68932;47.410;8.232;2024-01-06T01:23:47;9.20;;;7.40;;
79464;SDS011;68932;47.410;8.232;2024-01-06T01:26:16;9.30;;;7.10;;
79464;SDS011;68932;47.410;8.232;2024-01-06T01:28:44;9.50;;;7.70;;
79464;SDS011;68932;47.410;8.232;2024-01-06T01:31:13;10.20;;;7.40;;
79464;SDS011;68932;47.410;8.232;2024-01-06T01:33:41;9.60;;;7.80;;
79464;SDS011;68932;47.410;8.232;2024-01-06T01:36:09;8.70;;;7.00;;
79464;SDS011;68932;47.410;8.232;2024-01-06T01:38:38;9.60;;;8.30;;
79464;SDS011;68932;47.410;8.232;2024-01-06T01:41:07;9.70;;;8.30;;
79464;SDS011;68932;47.410;8.232;2024-01-06T01:43:35;7.60;;;5.60;;
79464;SDS011;68932;47.410;8.232;2024-01-06T01:46:03;6.70;;;5.30;;
79464;SDS011;68932;47.410;8.232;2024-01-06T01:48:32;7.80;;;5.90;;
79464;SDS011;68932;47.410;8.232;2024-01-06T01:51:00;7.90;;;5.80;;
79464;SDS011;68932;47.410;8.232;2024-01-06T01:53:30;8.10;;;6.50;;
79464;SDS011;68932;47.410;8.232;2024-01-06T01:55:59;7.80;;;6.20;;
79464;SDS011;68932;47.410;8.232;2024-01-06T01:58:28;7.30;;;5.90;;
79464;SDS011;68932;47.410;8.232;2024-01-06T02:00:56;8.50;;;6.80;;
79464;SDS011;68932;47.410;8.232;2024-01-06T02:03:24;8.50;;;6.80;;
79464;SDS011;68932;47.410;8.232;2024-01-06T02:05:54;8.50;;;6.50;;
79464;SDS011;68932;47.410;8.232;2024-01-06T02:08:23;6.70;;;6.00;;
79464;SDS011;68932;47.410;8.232;2024-01-06T02:10:51;6.60;;;5.90;;
79464;SDS011;68932;47.410;8.232;2024-01-06T02:13:20;6.50;;;5.20;;
79464;SDS011;68932;47.410;8.232;2024-01-06T02:15:49;6.10;;;5.40;;
79464;SDS011;68932;47.410;8.232;2024-01-06T02:18:17;7.00;;;5.10;;
79464;SDS011;68932;47.410;8.232;2024-01-06T02:20:46;6.00;;;5.10;;
79464;SDS011;68932;47.410;8.232;2024-01-06T02:23:15;5.90;;;5.30;;
79464;SDS011;68932;47.410;8.232;2024-01-06T02:25:43;6.00;;;5.30;;
79464;SDS011;68932;47.410;8.232;2024-01-06T02:28:11;5.70;;;4.90;;
79464;SDS011;68932;47.410;8.232;2024-01-06T02:30:40;5.90;;;5.20;;
79464;SDS011;68932;47.410;8.232;2024-01-06T02:33:08;6.10;;;5.50;;
79464;SDS011;68932;47.410;8.232;2024-01-06T02:35:36;5.90;;;5.00;;
79464;SDS011;68932;47.410;8.232;2024-01-06T02:38:05;5.30;;;4.70;;
79464;SDS011;68932;47.410;8.232;2024-01-06T02:40:33;6.00;;;5.00;;
79464;SDS011;68932;47.410;8.232;2024-01-06T02:43:02;6.30;;;5.20;;
79464;SDS011;68932;47.410;8.232;2024-01-06T02:45:30;4.30;;;3.90;;
79464;SDS011;68932;47.410;8.232;2024-01-06T02:47:58;5.40;;;4.50;;
79464;SDS011;68932;47.410;8.232;2024-01-06T02:50:27;4.60;;;4.00;;
79464;SDS011;68932;47.410;8.232;2024-01-06T02:52:55;5.00;;;3.70;;
79464;SDS011;68932;47.410;8.232;2024-01-06T02:55:23;5.60;;;4.40;;
79464;SDS011;68932;47.410;8.232;2024-01-06T02:57:51;4.30;;;3.90;;
79464;SDS011;68932;47.410;8.232;2024-01-06T03:00:20;4.30;;;3.90;;
79464;SDS011;68932;47.410;8.232;2024-01-06T03:02:48;5.60;;;3.40;;
79464;SDS011;68932;47.410;8.232;2024-01-06T03:05:17;3.60;;;3.10;;
79464;SDS011;68932;47.410;8.232;2024-01-06T03:07:45;5.30;;;2.90;;
79464;SDS011;68932;47.410;8.232;2024-01-06T03:10:13;3.70;;;2.90;;
79464;SDS011;68932;47.410;8.232;2024-01-06T03:12:42;5.40;;;3.00;;
79464;SDS011;68932;47.410;8.232;2024-01-06T03:15:10;4.30;;;3.20;;
79464;SDS011;68932;47.410;8.232;2024-01-06T03:17:39;4.40;;;3.00;;
79464;SDS011;68932;47.410;8.232;2024-01-06T03:20:09;3.40;;;2.80;;
79464;SDS011;68932;47.410;8.232;2024-01-06T03:22:37;3.70;;;3.20;;
79464;SDS011;68932;47.410;8.232;2024-01-06T03:25:07;3.20;;;2.80;;
79464;SDS011;68932;47.410;8.232;2024-01-06T03:27:35;4.50;;;2.60;;
79464;SDS011;68932;47.410;8.232;2024-01-06T03:30:05;3.60;;;2.70;;
79464;SDS011;68932;47.410;8.232;2024-01-06T03:32:34;3.10;;;2.20;;
79464;SDS011;68932;47.410;8.232;2024-01-06T03:35:03;3.20;;;1.70;;
79464;SDS011;68932;47.410;8.232;2024-01-06T03:37:32;3.00;;;1.80;;
79464;SDS011;68932;47.410;8.232;2024-01-06T03:40:01;3.50;;;2.90;;
79464;SDS011;68932;47.410;8.232;2024-01-06T03:42:30;3.00;;;2.50;;
79464;SDS011;68932;47.410;8.232;2024-01-06T03:44:58;3.20;;;2.90;;
79464;SDS011;68932;47.410;8.232;2024-01-06T03:47:26;2.80;;;2.20;;
79464;SDS011;68932;47.410;8.232;2024-01-06T03:49:54;2.40;;;2.20;;
79464;SDS011;68932;47.410;8.232;2024-01-06T03:52:23;4.90;;;2.60;;
79464;SDS011;68932;47.410;8.232;2024-01-06T03:54:51;3.60;;;2.70;;
79464;SDS011;68932;47.410;8.232;2024-01-06T03:57:19;3.30;;;2.50;;
79464;SDS011;68932;47.410;8.232;2024-01-06T03:59:47;3.10;;;2.40;;
79464;SDS011;68932;47.410;8.232;2024-01-06T04:02:15;3.10;;;2.30;;
79464;SDS011;68932;47.410;8.232;2024-01-06T04:04:44;2.90;;;2.20;;
79464;SDS011;68932;47.410;8.232;2024-01-06T04:07:12;3.50;;;2.10;;
79464;SDS011;68932;47.410;8.232;2024-01-06T04:09:42;2.20;;;1.50;;
79464;SDS011;68932;47.410;8.232;2024-01-06T04:12:11;3.40;;;1.60;;
79464;SDS011;68932;47.410;8.232;2024-01-06T04:14:39;2.60;;;1.80;;
79464;SDS011;68932;47.410;8.232;2024-01-06T04:17:07;3.80;;;1.60;;
79464;SDS011;68932;47.410;8.232;2024-01-06T04:19:36;4.00;;;2.40;;
79464;SDS011;68932;47.410;8.232;2024-01-06T04:22:04;2.20;;;1.80;;
79464;SDS011;68932;47.410;8.232;2024-01-06T04:24:32;2.20;;;1.60;;
79464;SDS011;68932;47.410;8.232;2024-01-06T04:27:01;2.50;;;1.70;;
79464;SDS011;68932;47.410;8.232;2024-01-06T04:29:29;2.00;;;1.60;;
79464;SDS011;68932;47.410;8.232;2024-01-06T04:31:58;2.10;;;1.70;;
79464;SDS011;68932;47.410;8.232;2024-01-06T04:34:26;3.80;;;1.60;;
79464;SDS011;68932;47.410;8.232;2024-01-06T04:36:54;2.70;;;1.50;;
79464;SDS011;68932;47.410;8.232;2024-01-06T04:39:22;2.50;;;2.00;;
79464;SDS011;68932;47.410;8.232;2024-01-06T04:41:50;4.00;;;1.50;;
79464;SDS011;68932;47.410;8.232;2024-01-06T04:44:20;2.00;;;1.50;;
79464;SDS011;68932;47.410;8.232;2024-01-06T04:46:48;3.50;;;1.80;;
79464;SDS011;68932;47.410;8.232;2024-01-06T04:49:17;6.50;;;1.70;;
79464;SDS011;68932;47.410;8.232;2024-01-06T04:51:45;2.60;;;1.60;;
79464;SDS011;68932;47.410;8.232;2024-01-06T04:54:14;2.30;;;1.40;;
79464;SDS011;68932;47.410;8.232;2024-01-06T04:56:42;2.00;;;1.50;;
79464;SDS011;68932;47.410;8.232;2024-01-06T04:59:10;2.80;;;1.40;;
79464;SDS011;68932;47.410;8.232;2024-01-06T05:01:39;2.20;;;1.40;;
79464;SDS011;68932;47.410;8.232;2024-01-06T05:04:07;2.40;;;1.80;;
79464;SDS011;68932;47.410;8.232;2024-01-06T05:06:35;2.10;;;1.80;;
79464;SDS011;68932;47.410;8.232;2024-01-06T05:09:04;2.10;;;1.70;;
79464;SDS011;68932;47.410;8.232;2024-01-06T05:11:32;2.00;;;1.80;;
79464;SDS011;68932;47.410;8.232;2024-01-06T05:14:00;3.50;;;2.10;;
79464;SDS011;68932;47.410;8.232;2024-01-06T05:16:28;2.90;;;2.10;;
79464;SDS011;68932;47.410;8.232;2024-01-06T05:18:57;3.10;;;2.30;;
79464;SDS011;68932;47.410;8.232;2024-01-06T05:21:25;3.30;;;3.00;;
79464;SDS011;68932;47.410;8.232;2024-01-06T05:23:53;1.90;;;1.50;;
79464;SDS011;68932;47.410;8.232;2024-01-06T05:26:22;3.30;;;1.90;;
79464;SDS011;68932;47.410;8.232;2024-01-06T05:28:50;1.70;;;1.40;;
79464;SDS011;68932;47.410;8.232;2024-01-06T05:31:18;2.50;;;1.80;;
79464;SDS011;68932;47.410;8.232;2024-01-06T05:33:46;4.80;;;1.70;;
79464;SDS011;68932;47.410;8.232;2024-01-06T05:36:18;1.70;;;1.50;;
79464;SDS011;68932;47.410;8.232;2024-01-06T05:38:46;1.80;;;1.70;;
79464;SDS011;68932;47.410;8.232;2024-01-06T05:41:15;3.00;;;1.60;;
79464;SDS011;68932;47.410;8.232;2024-01-06T05:43:43;3.00;;;1.30;;
79464;SDS011;68932;47.410;8.232;2024-01-06T05:46:11;1.30;;;1.20;;
79464;SDS011;68932;47.410;8.232;2024-01-06T05:48:46;2.10;;;1.60;;
79464;SDS011;68932;47.410;8.232;2024-01-06T05:51:14;2.90;;;2.60;;
79464;SDS011;68932;47.410;8.232;2024-01-06T05:53:43;2.20;;;1.60;;
79464;SDS011;68932;47.410;8.232;2024-01-06T05:56:11;2.40;;;1.20;;
79464;SDS011;68932;47.410;8.232;2024-01-06T05:58:48;1.80;;;1.30;;
79464;SDS011;68932;47.410;8.232;2024-01-06T06:01:16;1.80;;;1.40;;
79464;SDS011;68932;47.410;8.232;2024-01-06T06:03:44;1.80;;;1.50;;
79464;SDS011;68932;47.410;8.232;2024-01-06T06:06:13;2.50;;;1.70;;
79464;SDS011;68932;47.410;8.232;2024-01-06T06:08:42;2.60;;;1.90;;
79464;SDS011;68932;47.410;8.232;2024-01-06T06:11:10;2.40;;;1.40;;
79464;SDS011;68932;47.410;8.232;2024-01-06T06:13:39;3.50;;;3.30;;
79464;SDS011;68932;47.410;8.232;2024-01-06T06:16:08;2.20;;;1.30;;
79464;SDS011;68932;47.410;8.232;2024-01-06T06:18:37;1.80;;;1.10;;
79464;SDS011;68932;47.410;8.232;2024-01-06T06:21:05;2.30;;;1.60;;
79464;SDS011;68932;47.410;8.232;2024-01-06T06:23:34;2.20;;;2.00;;
79464;SDS011;68932;47.410;8.232;2024-01-06T06:26:04;2.00;;;1.80;;
79464;SDS011;68932;47.410;8.232;2024-01-06T06:28:33;1.60;;;1.50;;
79464;SDS011;68932;47.410;8.232;2024-01-06T06:31:02;2.10;;;1.90;;
79464;SDS011;68932;47.410;8.232;2024-01-06T06:33:30;2.30;;;1.30;;
79464;SDS011;68932;47.410;8.232;2024-01-06T06:35:59;1.70;;;1.20;;
79464;SDS011;68932;47.410;8.232;2024-01-06T06:38:27;1.90;;;1.70;;
79464;SDS011;68932;47.410;8.232;2024-01-06T06:40:55;1.70;;;1.30;;
79464;SDS011;68932;47.410;8.232;2024-01-06T06:43:23;1.90;;;1.30;;
79464;SDS011;68932;47.410;8.232;2024-01-06T06:45:52;2.30;;;1.60;;
79464;SDS011;68932;47.410;8.232;2024-01-06T06:48:20;1.60;;;1.10;;
79464;SDS011;68932;47.410;8.232;2024-01-06T06:50:48;2.00;;;1.60;;
79464;SDS011;68932;47.410;8.232;2024-01-06T06:53:17;2.10;;;1.40;;
79464;SDS011;68932;47.410;8.232;2024-01-06T06:55:45;2.10;;;1.60;;
79464;SDS011;68932;47.410;8.232;2024-01-06T06:58:13;2.50;;;1.50;;
79464;SDS011;68932;47.410;8.232;2024-01-06T07:00:41;2.30;;;1.30;;
79464;SDS011;68932;47.410;8.232;2024-01-06T07:03:10;1.70;;;1.60;;
79464;SDS011;68932;47.410;8.232;2024-01-06T07:05:38;1.80;;;1.50;;
79464;SDS011;68932;47.410;8.232;2024-01-06T07:08:07;1.70;;;1.30;;
79464;SDS011;68932;47.410;8.232;2024-01-06T07:10:35;1.80;;;1.60;;
79464;SDS011;68932;47.410;8.232;2024-01-06T07:13:03;3.30;;;1.90;;
79464;SDS011;68932;47.410;8.232;2024-01-06T07:15:32;2.40;;;1.80;;
79464;SDS011;68932;47.410;8.232;2024-01-06T07:18:00;2.60;;;1.90;;
79464;SDS011;68932;47.410;8.232;2024-01-06T07:20:29;1.70;;;1.60;;
79464;SDS011;68932;47.410;8.232;2024-01-06T07:22:57;2.50;;;1.80;;
79464;SDS011;68932;47.410;8.232;2024-01-06T07:25:25;1.90;;;1.60;;
79464;SDS011;68932;47.410;8.232;2024-01-06T07:27:54;2.80;;;2.00;;
79464;SDS011;68932;47.410;8.232;2024-01-06T07:30:22;3.10;;;1.70;;
79464;SDS011;68932;47.410;8.232;2024-01-06T07:32:50;2.10;;;1.90;;
79464;SDS011;68932;47.410;8.232;2024-01-06T07:35:18;2.60;;;2.40;;
79464;SDS011;68932;47.410;8.232;2024-01-06T07:37:47;4.00;;;2.30;;
79464;SDS011;68932;47.410;8.232;2024-01-06T07:40:15;2.60;;;2.00;;
79464;SDS011;68932;47.410;8.232;2024-01-06T07:42:44;2.20;;;2.00;;
79464;SDS011;68932;47.410;8.232;2024-01-06T07:45:12;3.40;;;2.10;;
79464;SDS011;68932;47.410;8.232;2024-01-06T07:47:40;2.80;;;2.10;;
79464;SDS011;68932;47.410;8.232;2024-01-06T07:50:09;2.00;;;1.80;;
79464;SDS011;68932;47.410;8.232;2024-01-06T07:52:37;4.10;;;2.50;;
79464;SDS011;68932;47.410;8.232;2024-01-06T07:55:06;2.50;;;1.90;;
79464;SDS011;68932;47.410;8.232;2024-01-06T07:57:35;3.30;;;2.20;;
79464;SDS011;68932;47.410;8.232;2024-01-06T08:00:04;2.10;;;1.90;;
79464;SDS011;68932;47.410;8.232;2024-01-06T08:02:34;2.70;;;2.50;;
79464;SDS011;68932;47.410;8.232;2024-01-06T08:05:02;2.90;;;2.40;;
79464;SDS011;68932;47.410;8.232;2024-01-06T08:07:30;2.80;;;2.00;;
79464;SDS011;68932;47.410;8.232;2024-01-06T08:09:59;3.50;;;3.00;;
79464;SDS011;68932;47.410;8.232;2024-01-06T08:12:27;3.70;;;2.10;;
79464;SDS011;68932;47.410;8.232;2024-01-06T08:14:55;3.60;;;2.40;;
79464;SDS011;68932;47.410;8.232;2024-01-06T08:17:24;3.40;;;2.30;;
79464;SDS011;68932;47.410;8.232;2024-01-06T08:19:52;2.60;;;2.10;;
79464;SDS011;68932;47.410;8.232;2024-01-06T08:22:20;3.30;;;2.50;;
79464;SDS011;68932;47.410;8.232;2024-01-06T08:24:49;2.80;;;2.60;;
79464;SDS011;68932;47.410;8.232;2024-01-06T08:27:17;4.00;;;3.60;;
79464;SDS011;68932;47.410;8.232;2024-01-06T08:29:45;3.80;;;3.30;;
79464;SDS011;68932;47.410;8.232;2024-01-06T08:32:13;3.80;;;2.60;;
79464;SDS011;68932;47.410;8.232;2024-01-06T08:34:42;4.50;;;3.20;;
79464;SDS011;68932;47.410;8.232;2024-01-06T08:37:10;5.80;;;2.80;;
79464;SDS011;68932;47.410;8.232;2024-01-06T08:39:38;5.60;;;3.10;;
79464;SDS011;68932;47.410;8.232;2024-01-06T08:42:06;3.60;;;2.80;;
79464;SDS011;68932;47.410;8.232;2024-01-06T08:44:35;4.80;;;2.50;;
79464;SDS011;68932;47.410;8.232;2024-01-06T08:47:03;3.50;;;2.90;;
79464;SDS011;68932;47.410;8.232;2024-01-06T08:49:32;5.10;;;4.30;;
79464;SDS011;68932;47.410;8.232;2024-01-06T08:52:01;6.20;;;5.50;;
79464;SDS011;68932;47.410;8.232;2024-01-06T08:54:30;5.70;;;4.90;;
79464;SDS011;68932;47.410;8.232;2024-01-06T08:56:58;10.40;;;6.60;;
79464;SDS011;68932;47.410;8.232;2024-01-06T08:59:27;5.00;;;4.20;;
79464;SDS011;68932;47.410;8.232;2024-01-06T09:01:55;4.00;;;3.10;;
79464;SDS011;68932;47.410;8.232;2024-01-06T09:04:23;5.20;;;3.20;;
79464;SDS011;68932;47.410;8.232;2024-01-06T09:06:52;4.10;;;3.20;;
79464;SDS011;68932;47.410;8.232;2024-01-06T09:09:20;3.00;;;2.60;;
79464;SDS011;68932;47.410;8.232;2024-01-06T09:11:48;2.80;;;2.30;;
79464;SDS011;68932;47.410;8.232;2024-01-06T09:14:17;4.10;;;3.20;;
79464;SDS011;68932;47.410;8.232;2024-01-06T09:16:45;3.20;;;2.90;;
79464;SDS011;68932;47.410;8.232;2024-01-06T09:19:14;3.90;;;2.90;;
79464;SDS011;68932;47.410;8.232;2024-01-06T09:21:42;3.30;;;2.50;;
79464;SDS011;68932;47.410;8.232;2024-01-06T09:24:10;3.30;;;2.80;;
79464;SDS011;68932;47.410;8.232;2024-01-06T09:26:39;4.60;;;3.20;;
79464;SDS011;68932;47.410;8.232;2024-01-06T09:29:07;3.50;;;3.10;;
79464;SDS011;68932;47.410;8.232;2024-01-06T09:31:35;3.80;;;3.40;;
79464;SDS011;68932;47.410;8.232;2024-01-06T09:34:04;3.90;;;2.90;;
79464;SDS011;68932;47.410;8.232;2024-01-06T09:36:35;3.00;;;2.70;;
79464;SDS011;68932;47.410;8.232;2024-01-06T09:39:03;4.00;;;3.50;;
79464;SDS011;68932;47.410;8.232;2024-01-06T09:41:32;4.40;;;2.40;;
79464;SDS011;68932;47.410;8.232;2024-01-06T09:44:00;4.10;;;2.40;;
79464;SDS011;68932;47.410;8.232;2024-01-06T09:46:29;2.80;;;2.50;;
79464;SDS011;68932;47.410;8.232;2024-01-06T09:48:58;3.60;;;2.50;;
79464;SDS011;68932;47.410;8.232;2024-01-06T09:51:26;3.30;;;2.60;;
79464;SDS011;68932;47.410;8.232;2024-01-06T09:53:56;4.00;;;3.40;;
79464;SDS011;68932;47.410;8.232;2024-01-06T09:56:25;3.20;;;2.80;;
79464;SDS011;68932;47.410;8.232;2024-01-06T09:58:54;3.20;;;2.90;;
79464;SDS011;68932;47.410;8.232;2024-01-06T10:01:23;5.60;;;3.10;;
79464;SDS011;68932;47.410;8.232;2024-01-06T10:03:51;3.20;;;2.90;;
79464;SDS011;68932;47.410;8.232;2024-01-06T10:06:20;5.10;;;3.70;;
79464;SDS011;68932;47.410;8.232;2024-01-06T10:08:49;4.60;;;3.40;;
79464;SDS011;68932;47.410;8.232;2024-01-06T10:11:18;4.60;;;3.50;;
79464;SDS011;68932;47.410;8.232;2024-01-06T10:13:49;6.20;;;3.60;;
79464;SDS011;68932;47.410;8.232;2024-01-06T10:16:18;4.10;;;3.60;;
79464;SDS011;68932;47.410;8.232;2024-01-06T10:18:47;4.10;;;3.30;;
79464;SDS011;68932;47.410;8.232;2024-01-06T10:21:15;3.80;;;3.00;;
79464;SDS011;68932;47.410;8.232;2024-01-06T10:23:43;4.90;;;4.00;;
79464;SDS011;68932;47.410;8.232;2024-01-06T10:26:13;4.50;;;3.30;;
79464;SDS011;68932;47.410;8.232;2024-01-06T10:28:41;4.20;;;3.30;;
79464;SDS011;68932;47.410;8.232;2024-01-06T10:31:09;4.90;;;3.30;;
79464;SDS011;68932;47.410;8.232;2024-01-06T10:33:38;3.90;;;3.50;;
79464;SDS011;68932;47.410;8.232;2024-01-06T10:36:07;5.30;;;3.70;;
79464;SDS011;68932;47.410;8.232;2024-01-06T10:38:36;4.40;;;3.70;;
79464;SDS011;68932;47.410;8.232;2024-01-06T10:41:06;5.70;;;3.60;;
79464;SDS011;68932;47.410;8.232;2024-01-06T10:43:35;5.60;;;3.30;;
79464;SDS011;68932;47.410;8.232;2024-01-06T10:46:05;4.20;;;3.70;;
79464;SDS011;68932;47.410;8.232;2024-01-06T10:48:34;5.60;;;3.80;;
79464;SDS011;68932;47.410;8.232;2024-01-06T10:51:04;4.30;;;3.40;;
79464;SDS011;68932;47.410;8.232;2024-01-06T10:53:33;4.20;;;3.40;;
79464;SDS011;68932;47.410;8.232;2024-01-06T10:56:02;5.50;;;3.90;;
79464;SDS011;68932;47.410;8.232;2024-01-06T10:58:31;4.60;;;3.80;;
79464;SDS011;68932;47.410;8.232;2024-01-06T11:01:00;6.70;;;4.20;;
79464;SDS011;68932;47.410;8.232;2024-01-06T11:03:30;4.40;;;3.70;;
79464;SDS011;68932;47.410;8.232;2024-01-06T11:05:59;5.70;;;5.00;;
79464;SDS011;68932;47.410;8.232;2024-01-06T11:08:27;4.60;;;4.10;;
79464;SDS011;68932;47.410;8.232;2024-01-06T11:10:57;6.60;;;4.00;;
79464;SDS011;68932;47.410;8.232;2024-01-06T11:13:26;6.60;;;4.60;;
79464;SDS011;68932;47.410;8.232;2024-01-06T11:15:54;6.40;;;4.40;;
79464;SDS011;68932;47.410;8.232;2024-01-06T11:18:32;5.80;;;4.90;;
79464;SDS011;68932;47.410;8.232;2024-01-06T11:21:21;6.90;;;4.00;;
79464;SDS011;68932;47.410;8.232;2024-01-06T11:24:06;3.90;;;3.50;;
79464;SDS011;68932;47.410;8.232;2024-01-06T11:26:40;5.20;;;4.10;;
79464;SDS011;68932;47.410;8.232;2024-01-06T11:29:10;5.80;;;3.80;;
79464;SDS011;68932;47.410;8.232;2024-01-06T11:31:38;5.00;;;4.50;;
79464;SDS011;68932;47.410;8.232;2024-01-06T11:34:14;5.20;;;4.40;;
79464;SDS011;68932;47.410;8.232;2024-01-06T11:36:44;6.20;;;4.00;;
79464;SDS011;68932;47.410;8.232;2024-01-06T11:42:03;4.90;;;4.40;;
79464;SDS011;68932;47.410;8.232;2024-01-06T11:44:35;6.00;;;4.40;;
79464;SDS011;68932;47.410;8.232;2024-01-06T11:47:05;5.00;;;3.80;;
79464;SDS011;68932;47.410;8.232;2024-01-06T11:49:34;5.30;;;4.50;;
79464;SDS011;68932;47.410;8.232;2024-01-06T11:52:03;5.20;;;3.60;;
79464;SDS011;68932;47.410;8.232;2024-01-06T11:54:32;5.10;;;3.70;;
79464;SDS011;68932;47.410;8.232;2024-01-06T11:57:01;6.30;;;3.40;;
79464;SDS011;68932;47.410;8.232;2024-01-06T11:59:30;4.70;;;3.40;;
79464;SDS011;68932;47.410;8.232;2024-01-06T12:01:58;5.20;;;3.80;;
79464;SDS011;68932;47.410;8.232;2024-01-06T12:04:27;5.60;;;3.40;;
79464;SDS011;68932;47.410;8.232;2024-01-06T12:06:55;7.50;;;3.30;;
79464;SDS011;68932;47.410;8.232;2024-01-06T12:09:33;5.10;;;3.00;;
79464;SDS011;68932;47.410;8.232;2024-01-06T12:12:05;4.80;;;3.60;;
79464;SDS011;68932;47.410;8.232;2024-01-06T12:14:34;6.10;;;3.30;;
79464;SDS011;68932;47.410;8.232;2024-01-06T12:17:03;5.30;;;3.90;;
79464;SDS011;68932;47.410;8.232;2024-01-06T12:19:32;4.40;;;3.10;;
79464;SDS011;68932;47.410;8.232;2024-01-06T12:22:01;7.60;;;3.90;;
79464;SDS011;68932;47.410;8.232;2024-01-06T12:24:29;4.80;;;3.40;;
79464;SDS011;68932;47.410;8.232;2024-01-06T12:26:58;6.00;;;4.70;;
79464;SDS011;68932;47.410;8.232;2024-01-06T12:29:27;8.20;;;4.30;;
79464;SDS011;68932;47.410;8.232;2024-01-06T12:31:56;6.80;;;3.50;;
79464;SDS011;68932;47.410;8.232;2024-01-06T12:34:25;6.00;;;4.40;;
79464;SDS011;68932;47.410;8.232;2024-01-06T12:36:53;4.80;;;3.40;;
79464;SDS011;68932;47.410;8.232;2024-01-06T12:39:21;7.20;;;4.10;;
79464;SDS011;68932;47.410;8.232;2024-01-06T12:41:53;8.10;;;3.90;;
79464;SDS011;68932;47.410;8.232;2024-01-06T12:44:22;7.80;;;4.40;;
79464;SDS011;68932;47.410;8.232;2024-01-06T12:46:50;7.40;;;4.30;;
79464;SDS011;68932;47.410;8.232;2024-01-06T12:49:19;4.90;;;3.00;;
79464;SDS011;68932;47.410;8.232;2024-01-06T12:51:47;4.90;;;3.70;;
79464;SDS011;68932;47.410;8.232;2024-01-06T12:54:15;4.60;;;3.00;;
79464;SDS011;68932;47.410;8.232;2024-01-06T12:56:44;5.10;;;3.00;;
79464;SDS011;68932;47.410;8.232;2024-01-06T12:59:12;5.50;;;2.90;;
79464;SDS011;68932;47.410;8.232;2024-01-06T13:01:41;4.70;;;3.10;;
79464;SDS011;68932;47.410;8.232;2024-01-06T13:04:10;6.00;;;3.70;;
79464;SDS011;68932;47.410;8.232;2024-01-06T13:06:38;4.40;;;3.70;;
79464;SDS011;68932;47.410;8.232;2024-01-06T13:09:07;5.20;;;4.30;;
79464;SDS011;68932;47.410;8.232;2024-01-06T13:11:36;4.00;;;3.60;;
79464;SDS011;68932;47.410;8.232;2024-01-06T13:14:04;5.60;;;3.40;;
79464;SDS011;68932;47.410;8.232;2024-01-06T13:16:33;7.90;;;3.70;;
79464;SDS011;68932;47.410;8.232;2024-01-06T13:19:01;6.90;;;3.40;;
79464;SDS011;68932;47.410;8.232;2024-01-06T13:21:29;5.70;;;3.20;;
79464;SDS011;68932;47.410;8.232;2024-01-06T13:23:57;9.00;;;6.40;;
79464;SDS011;68932;47.410;8.232;2024-01-06T13:26:26;6.00;;;3.70;;
79464;SDS011;68932;47.410;8.232;2024-01-06T13:28:54;6.70;;;3.10;;
79464;SDS011;68932;47.410;8.232;2024-01-06T13:31:22;5.80;;;3.00;;
79464;SDS011;68932;47.410;8.232;2024-01-06T13:33:50;6.00;;;4.30;;
79464;SDS011;68932;47.410;8.232;2024-01-06T13:36:19;5.70;;;4.50;;
79464;SDS011;68932;47.410;8.232;2024-01-06T13:38:48;4.10;;;3.50;;
79464;SDS011;68932;47.410;8.232;2024-01-06T13:41:16;5.00;;;4.50;;
79464;SDS011;68932;47.410;8.232;2024-01-06T13:43:45;5.70;;;3.50;;
79464;SDS011;68932;47.410;8.232;2024-01-06T13:46:13;5.60;;;3.50;;
79464;SDS011;68932;47.410;8.232;2024-01-06T13:48:41;4.30;;;3.60;;
79464;SDS011;68932;47.410;8.232;2024-01-06T13:51:09;6.80;;;3.80;;
79464;SDS011;68932;47.410;8.232;2024-01-06T13:53:38;6.40;;;3.30;;
79464;SDS011;68932;47.410;8.232;2024-01-06T13:56:07;5.40;;;3.50;;
79464;SDS011;68932;47.410;8.232;2024-01-06T13:58:35;5.50;;;3.00;;
79464;SDS011;68932;47.410;8.232;2024-01-06T14:01:03;6.00;;;3.90;;
79464;SDS011;68932;47.410;8.232;2024-01-06T14:03:31;7.20;;;3.70;;
79464;SDS011;68932;47.410;8.232;2024-01-06T14:06:00;5.80;;;3.40;;
79464;SDS011;68932;47.410;8.232;2024-01-06T14:08:28;5.20;;;3.00;;
79464;SDS011;68932;47.410;8.232;2024-01-06T14:10:56;7.00;;;3.60;;
79464;SDS011;68932;47.410;8.232;2024-01-06T14:13:25;5.70;;;3.50;;
79464;SDS011;68932;47.410;8.232;2024-01-06T14:15:53;6.40;;;3.40;;
79464;SDS011;68932;47.410;8.232;2024-01-06T14:18:21;4.60;;;3.50;;
79464;SDS011;68932;47.410;8.232;2024-01-06T14:20:50;4.90;;;3.20;;
79464;SDS011;68932;47.410;8.232;2024-01-06T14:23:18;4.10;;;2.60;;
79464;SDS011;68932;47.410;8.232;2024-01-06T14:25:46;5.20;;;2.80;;
79464;SDS011;68932;47.410;8.232;2024-01-06T14:28:15;4.00;;;2.90;;
79464;SDS011;68932;47.410;8.232;2024-01-06T14:30:43;5.50;;;3.50;;
79464;SDS011;68932;47.410;8.232;2024-01-06T14:33:11;4.50;;;3.00;;
79464;SDS011;68932;47.410;8.232;2024-01-06T14:35:40;6.10;;;2.50;;
79464;SDS011;68932;47.410;8.232;2024-01-06T14:38:08;4.20;;;2.90;;
79464;SDS011;68932;47.410;8.232;2024-01-06T14:40:36;4.20;;;2.50;;
79464;SDS011;68932;47.410;8.232;2024-01-06T14:43:05;4.70;;;3.20;;
79464;SDS011;68932;47.410;8.232;2024-01-06T14:45:33;7.40;;;4.40;;
79464;SDS011;68932;47.410;8.232;2024-01-06T14:48:01;4.60;;;3.10;;
79464;SDS011;68932;47.410;8.232;2024-01-06T14:50:30;4.80;;;2.90;;
79464;SDS011;68932;47.410;8.232;2024-01-06T14:52:58;5.10;;;3.10;;
79464;SDS011;68932;47.410;8.232;2024-01-06T14:55:27;4.60;;;3.00;;
79464;SDS011;68932;47.410;8.232;2024-01-06T14:57:55;4.20;;;3.30;;
79464;SDS011;68932;47.410;8.232;2024-01-06T15:00:23;3.30;;;2.70;;